Burnettsville, Indiana
Current Conditions -  °F | °C
As of 2:55 AM on Friday 31 Oct 2014 (Local Time) from KMCX Reporting Station
Overcast Overcast  
Wind Chill: 42°   Ceiling: 6500
Heat Index: 42°   Visibility: 10mi
Dew Point: 38°   Wind: 0mph
Humidity: 86%   Direction: NA
Pressure: 30.02"   Gusts: NA
Location:  40.76°N, 86.59°W
Report Text: KMCX 310655Z AUTO 00000KT 10SM OVC065 06/03 A3002 RMK AO2 T00550033
Loading
Personal Weather Stations






























Interactive Weather Map
Tropical Storm Tracking
New forecast layout! Learn more

10-Day Weather Forecast

Advertisements
Track Severe Weather on mobile